Time;durP1;ratioP1;P1;durP2;ratioP2;P2;SDS_P1;SDS_P2;PMS_P1;PMS_P2;Temp;Humidity;BMP_temperature;BMP_pressure;BME280_temperature;BME280_humidity;BME280_pressure;Samples;Min_cycle;Max_cycle;Signal;HPM_P1;HPM_P2
2021/09/15 00:00:21;;;;;;;3.45;3.00;;;25.00;51.00;;;;;;5032545;28;20234;-44
2021/09/15 00:02:49;;;;;;;3.90;3.05;;;25.00;51.00;;;;;;5033501;28;20260;-41
2021/09/15 00:05:15;;;;;;;3.38;3.08;;;25.00;51.00;;;;;;5031285;28;20466;-45
2021/09/15 00:07:42;;;;;;;3.30;3.00;;;25.00;51.00;;;;;;5033217;28;20675;-43
2021/09/15 00:10:08;;;;;;;2.97;2.78;;;25.00;51.00;;;;;;5032938;28;20241;-47
2021/09/15 00:12:35;;;;;;;3.35;2.72;;;25.00;51.00;;;;;;5033482;28;20260;-49
2021/09/15 00:15:01;;;;;;;3.20;3.00;;;25.00;51.00;;;;;;5032163;28;20730;-44
2021/09/15 00:17:28;;;;;;;3.10;2.80;;;25.00;51.00;;;;;;5033401;28;20257;-43
2021/09/15 00:19:54;;;;;;;2.95;2.65;;;25.00;51.00;;;;;;5030704;28;20234;-47
2021/09/15 00:22:21;;;;;;;3.85;3.10;;;25.00;51.00;;;;;;5032169;28;20653;-50
2021/09/15 00:24:47;;;;;;;3.55;3.25;;;25.00;51.00;;;;;;5032524;28;20198;-44
2021/09/15 00:27:14;;;;;;;3.40;3.10;;;25.00;51.00;;;;;;5032193;28;20675;-45
2021/09/15 00:29:41;;;;;;;3.00;2.80;;;25.00;51.00;;;;;;5032582;28;20234;-42
2021/09/15 00:32:07;;;;;;;3.35;3.05;;;25.00;51.00;;;;;;5031622;28;20222;-44
2021/09/15 00:34:34;;;;;;;3.00;2.80;;;25.00;51.10;;;;;;5032529;28;20245;-46
2021/09/15 00:37:00;;;;;;;2.92;2.67;;;25.00;51.00;;;;;;5030416;28;20321;-44
2021/09/15 00:39:27;;;;;;;3.13;2.83;;;25.00;51.00;;;;;;5032871;28;20207;-47
2021/09/15 00:41:53;;;;;;;2.92;2.72;;;25.00;51.00;;;;;;5031662;28;20936;-44
2021/09/15 00:44:20;;;;;;;3.28;3.00;;;25.00;51.00;;;;;;5030817;28;20238;-42
2021/09/15 00:46:46;;;;;;;3.13;2.83;;;25.00;51.00;;;;;;5031425;28;20257;-44
2021/09/15 00:49:13;;;;;;;3.33;3.03;;;25.00;51.00;;;;;;5029937;28;20203;-43
2021/09/15 00:51:39;;;;;;;3.25;2.95;;;25.00;51.10;;;;;;5031906;28;20261;-44
2021/09/15 00:54:06;;;;;;;2.58;2.38;;;25.00;51.00;;;;;;5033158;28;20633;-43
2021/09/15 00:56:32;;;;;;;3.25;2.95;;;25.00;51.00;;;;;;5031637;28;20291;-45
2021/09/15 00:58:58;;;;;;;2.90;2.70;;;25.00;51.00;;;;;;5030793;28;20612;-44
2021/09/15 01:01:25;;;;;;;2.70;2.50;;;25.00;51.00;;;;;;5032230;28;20258;-45
2021/09/15 01:03:51;;;;;;;3.28;2.97;;;25.00;51.00;;;;;;5031575;28;20290;-43
2021/09/15 01:06:18;;;;;;;2.83;2.63;;;25.00;51.10;;;;;;5032784;28;20234;-44
2021/09/15 01:08:45;;;;;;;2.75;2.55;;;25.00;51.00;;;;;;5030725;28;20622;-42
2021/09/15 01:11:11;;;;;;;3.20;2.90;;;25.00;51.10;;;;;;5032525;28;20301;-42
2021/09/15 01:13:38;;;;;;;2.88;2.67;;;25.00;51.10;;;;;;5030050;28;20252;-46
2021/09/15 01:16:04;;;;;;;3.40;2.38;;;25.00;51.00;;;;;;5032394;28;20265;-40
2021/09/15 01:18:31;;;;;;;2.80;2.60;;;25.00;51.10;;;;;;5030205;28;20238;-41
2021/09/15 01:20:57;;;;;;;2.70;2.50;;;25.00;51.10;;;;;;5031008;28;20666;-50
2021/09/15 01:23:24;;;;;;;2.80;2.60;;;25.00;51.10;;;;;;5030992;28;20230;-46
2021/09/15 01:25:50;;;;;;;3.63;2.78;;;25.00;51.10;;;;;;5030901;28;20245;-47
2021/09/15 01:28:16;;;;;;;3.13;2.83;;;25.00;51.10;;;;;;5031216;28;20249;-45
2021/09/15 01:30:43;;;;;;;2.92;2.72;;;25.00;51.10;;;;;;5030364;28;20229;-43
2021/09/15 01:33:09;;;;;;;2.60;2.40;;;25.00;51.20;;;;;;5031108;28;20250;-50
2021/09/15 01:35:36;;;;;;;2.97;2.45;;;25.00;51.20;;;;;;5031229;28;20242;-45
2021/09/15 01:38:02;;;;;;;2.42;2.33;;;25.00;51.20;;;;;;5030896;28;20724;-44
2021/09/15 01:40:29;;;;;;;2.88;2.63;;;25.00;51.20;;;;;;5031492;28;20230;-43
2021/09/15 01:42:55;;;;;;;2.72;2.53;;;25.00;51.20;;;;;;5031630;28;20254;-47
2021/09/15 01:45:22;;;;;;;2.45;2.28;;;25.00;51.30;;;;;;5030547;28;20238;-46
2021/09/15 01:47:48;;;;;;;3.00;2.70;;;25.00;51.20;;;;;;5031252;28;20293;-47
2021/09/15 01:50:15;;;;;;;3.10;2.80;;;25.00;51.30;;;;;;5029443;28;20576;-43
2021/09/15 01:52:41;;;;;;;2.67;2.47;;;25.00;51.30;;;;;;5030638;28;20254;-41
2021/09/15 01:55:08;;;;;;;2.90;2.63;;;25.00;51.30;;;;;;5030701;28;20199;-44
2021/09/15 01:57:34;;;;;;;2.95;2.72;;;25.00;51.40;;;;;;5031249;28;20313;-46
2021/09/15 02:00:01;;;;;;;3.05;2.75;;;25.00;51.30;;;;;;5030781;28;20641;-52
2021/09/15 02:02:27;;;;;;;3.38;2.78;;;25.00;51.30;;;;;;5031100;28;20258;-42
2021/09/15 02:04:54;;;;;;;2.88;2.67;;;25.00;51.40;;;;;;5028526;28;20238;-49
2021/09/15 02:07:20;;;;;;;2.58;2.38;;;25.00;51.40;;;;;;5030308;28;20640;-43
2021/09/15 02:09:47;;;;;;;2.72;2.53;;;25.00;51.40;;;;;;5029287;28;20371;-42
2021/09/15 02:12:13;;;;;;;2.90;2.70;;;25.00;51.40;;;;;;5030863;28;20269;-43
2021/09/15 02:14:40;;;;;;;2.42;2.22;;;25.00;51.40;;;;;;5029585;28;20276;-43
2021/09/15 02:17:06;;;;;;;3.13;2.92;;;25.00;51.40;;;;;;5030542;28;20326;-44
2021/09/15 02:19:33;;;;;;;3.85;3.03;;;25.00;51.50;;;;;;5027673;28;20674;-48
2021/09/15 02:22:00;;;;;;;2.78;2.58;;;25.00;51.50;;;;;;5031184;28;20761;-40
2021/09/15 02:24:27;;;;;;;2.70;2.50;;;25.00;51.50;;;;;;5029444;28;20207;-41
2021/09/15 02:26:53;;;;;;;2.75;2.55;;;25.00;51.50;;;;;;5030907;28;20241;-44
2021/09/15 02:29:19;;;;;;;2.78;2.45;;;25.00;51.50;;;;;;5029845;28;20237;-44
2021/09/15 02:31:46;;;;;;;2.90;2.70;;;25.00;51.40;;;;;;5030852;28;20272;-45
2021/09/15 02:34:12;;;;;;;2.78;2.58;;;25.00;51.50;;;;;;5028765;28;20244;-41
2021/09/15 02:36:39;;;;;;;2.50;2.30;;;25.00;51.50;;;;;;5031026;28;20665;-44
2021/09/15 02:39:05;;;;;;;3.03;2.80;;;25.00;51.50;;;;;;5029844;28;20230;-41
2021/09/15 02:41:32;;;;;;;4.63;2.78;;;25.00;51.50;;;;;;5026360;28;20245;-42
2021/09/15 02:43:58;;;;;;;3.03;2.70;;;25.00;51.50;;;;;;5029570;28;20671;-44
2021/09/15 02:46:25;;;;;;;2.67;2.47;;;25.00;51.50;;;;;;5016098;28;20261;-47
2021/09/15 02:48:51;;;;;;;2.85;2.58;;;25.00;51.50;;;;;;5025178;28;20230;-49
2021/09/15 02:51:18;;;;;;;2.40;2.20;;;25.00;51.50;;;;;;5029839;28;20672;-42
2021/09/15 02:53:44;;;;;;;3.03;2.83;;;25.00;51.40;;;;;;5028824;28;20297;-43
2021/09/15 02:56:11;;;;;;;2.60;2.40;;;25.00;51.50;;;;;;5030867;28;20322;-48
2021/09/15 02:58:37;;;;;;;2.70;2.50;;;25.00;51.50;;;;;;5029497;28;20612;-45
2021/09/15 03:01:04;;;;;;;2.92;2.72;;;25.00;51.50;;;;;;5026749;28;20305;-48
2021/09/15 03:03:30;;;;;;;2.78;2.58;;;25.00;51.50;;;;;;5030059;28;20244;-40
2021/09/15 03:05:57;;;;;;;2.95;2.75;;;25.00;51.50;;;;;;5030891;28;20306;-43
2021/09/15 03:08:23;;;;;;;2.70;2.50;;;25.00;52.20;;;;;;5030681;28;20241;-40
2021/09/15 03:10:50;;;;;;;2.60;2.40;;;25.00;51.50;;;;;;5029470;28;20261;-41
2021/09/15 03:13:16;;;;;;;2.80;2.60;;;25.00;51.50;;;;;;5029278;28;20226;-42
2021/09/15 03:15:42;;;;;;;2.70;2.50;;;25.00;51.50;;;;;;5028865;28;20246;-41
2021/09/15 03:18:09;;;;;;;3.05;2.40;;;25.00;51.50;;;;;;5028738;28;20724;-41
2021/09/15 03:20:35;;;;;;;2.30;2.13;;;25.00;51.50;;;;;;5030427;28;20229;-40
2021/09/15 03:23:02;;;;;;;2.88;2.63;;;25.00;51.50;;;;;;5029871;28;20241;-41
2021/09/15 03:25:28;;;;;;;2.70;2.50;;;25.00;51.50;;;;;;5030199;28;20686;-41
2021/09/15 03:27:55;;;;;;;2.80;2.60;;;25.00;51.50;;;;;;5030028;28;20230;-42
2021/09/15 03:30:21;;;;;;;2.65;2.45;;;25.00;51.50;;;;;;5030497;28;20237;-42
2021/09/15 03:32:48;;;;;;;2.58;2.38;;;25.00;51.50;;;;;;5029581;28;20210;-41
2021/09/15 03:35:14;;;;;;;4.82;2.80;;;25.00;51.50;;;;;;5030093;28;20242;-48
2021/09/15 03:37:41;;;;;;;2.65;2.45;;;25.00;51.50;;;;;;5029459;28;20693;-43
2021/09/15 03:40:07;;;;;;;3.08;2.83;;;25.00;51.50;;;;;;5040446;28;20230;-51
2021/09/15 03:42:34;;;;;;;4.07;2.97;;;25.00;51.50;;;;;;5025354;28;20250;-51
2021/09/15 03:45:00;;;;;;;2.45;2.25;;;25.00;51.50;;;;;;5029926;28;20241;-41
2021/09/15 03:47:27;;;;;;;3.05;2.50;;;25.00;51.50;;;;;;5029345;28;20238;-44
2021/09/15 03:49:53;;;;;;;2.35;2.25;;;25.00;51.50;;;;;;5028523;28;20685;-41
2021/09/15 03:52:21;;;;;;;2.22;2.10;;;25.00;51.50;;;;;;5026928;28;20254;-45
2021/09/15 03:54:47;;;;;;;2.67;2.47;;;25.00;51.50;;;;;;5025501;28;20284;-46
2021/09/15 03:57:14;;;;;;;2.80;2.60;;;25.00;51.40;;;;;;5029417;28;20258;-43
2021/09/15 03:59:40;;;;;;;3.25;2.78;;;25.00;51.50;;;;;;5029292;28;20242;-44
2021/09/15 04:02:07;;;;;;;2.85;2.33;;;25.00;51.40;;;;;;5031443;28;20237;-44
2021/09/15 04:04:33;;;;;;;2.63;2.40;;;25.00;51.40;;;;;;5030386;28;20664;-42
2021/09/15 04:07:00;;;;;;;2.67;2.40;;;25.00;51.40;;;;;;5032433;28;20239;-52
2021/09/15 04:09:27;;;;;;;2.80;2.50;;;25.00;51.40;;;;;;5030558;28;20230;-42
2021/09/15 04:11:53;;;;;;;2.75;2.00;;;25.00;51.40;;;;;;5033728;28;20309;-42
2021/09/15 04:14:22;;;;;;;2.90;2.70;;;25.00;51.40;;;;;;5031408;28;20676;-46
2021/09/15 04:16:49;;;;;;;3.03;2.35;;;25.00;51.40;;;;;;5030829;28;20227;-43
2021/09/15 04:19:15;;;;;;;2.80;2.60;;;25.00;51.40;;;;;;5031990;28;20230;-44
2021/09/15 04:21:42;;;;;;;2.58;2.35;;;25.00;51.40;;;;;;5032402;28;20726;-43
2021/09/15 04:24:30;;;;;;;2.67;2.47;;;25.00;51.40;;;;;;5030022;28;20199;-42
2021/09/15 04:32:25;;;;;;;2.25;2.05;;;25.00;51.40;;;;;;5029687;28;20303;-41
2021/09/15 04:34:51;;;;;;;3.08;2.78;;;25.00;51.30;;;;;;5031004;28;20241;-42
2021/09/15 04:37:18;;;;;;;3.45;2.75;;;25.00;51.40;;;;;;5031373;28;20763;-43
2021/09/15 04:39:44;;;;;;;3.30;3.00;;;25.00;51.40;;;;;;5032142;28;20237;-42
2021/09/15 04:42:11;;;;;;;2.40;2.20;;;25.00;51.40;;;;;;5031916;28;20261;-41
2021/09/15 04:44:37;;;;;;;2.80;2.60;;;25.00;51.30;;;;;;5031275;28;20325;-46
2021/09/15 04:47:04;;;;;;;2.97;2.47;;;25.00;51.40;;;;;;5018329;28;20253;-42
2021/09/15 04:49:30;;;;;;;2.38;2.17;;;25.00;51.40;;;;;;5031844;28;20249;-42
2021/09/15 04:51:57;;;;;;;2.33;2.03;;;25.00;51.40;;;;;;5032530;28;20250;-42
2021/09/15 04:54:23;;;;;;;2.90;2.60;;;25.00;51.40;;;;;;5030110;28;20237;-42
2021/09/15 04:56:50;;;;;;;3.42;2.20;;;25.00;51.40;;;;;;5032052;28;20218;-45
2021/09/15 04:59:16;;;;;;;4.28;2.58;;;25.00;51.40;;;;;;5031331;28;20234;-43
2021/09/15 05:01:43;;;;;;;3.50;2.45;;;25.00;51.40;;;;;;5032344;28;20261;-42
2021/09/15 05:04:09;;;;;;;3.38;2.50;;;25.00;51.40;;;;;;5031009;28;20206;-45
2021/09/15 05:06:35;;;;;;;2.78;2.58;;;25.00;51.50;;;;;;5032490;28;20226;-44
2021/09/15 05:09:02;;;;;;;2.50;2.30;;;25.00;51.40;;;;;;5030596;28;20234;-42
2021/09/15 05:11:28;;;;;;;2.60;2.40;;;25.00;51.40;;;;;;5032635;28;20328;-44
2021/09/15 05:13:55;;;;;;;2.45;2.25;;;25.00;51.40;;;;;;5029880;28;20249;-42
2021/09/15 05:16:21;;;;;;;2.38;2.05;;;25.00;51.40;;;;;;5030567;28;20285;-42
2021/09/15 05:18:48;;;;;;;3.15;2.50;;;25.00;51.50;;;;;;5030002;28;20269;-44
2021/09/15 05:21:14;;;;;;;2.70;2.50;;;25.00;51.60;;;;;;5032552;28;20253;-42
2021/09/15 05:23:41;;;;;;;2.88;2.58;;;25.00;51.50;;;;;;5030763;28;20302;-42
2021/09/15 05:26:07;;;;;;;3.22;2.55;;;25.00;51.50;;;;;;5031423;28;20230;-42
2021/09/15 05:28:34;;;;;;;2.63;2.42;;;25.00;51.50;;;;;;5030044;28;20241;-43
2021/09/15 05:31:00;;;;;;;4.32;3.10;;;25.00;51.50;;;;;;5032497;28;20223;-43
2021/09/15 05:33:27;;;;;;;2.50;2.30;;;25.00;51.50;;;;;;5030577;28;20234;-42
2021/09/15 05:35:53;;;;;;;2.67;2.33;;;25.00;51.50;;;;;;5031296;28;20244;-51
2021/09/15 05:38:20;;;;;;;3.42;2.00;;;25.00;51.50;;;;;;5030348;28;20315;-42
2021/09/15 05:40:46;;;;;;;3.35;2.53;;;25.00;51.50;;;;;;5030190;28;20257;-43
2021/09/15 05:43:13;;;;;;;2.20;2.08;;;25.00;51.50;;;;;;5027833;28;20231;-43
2021/09/15 05:45:39;;;;;;;2.72;2.40;;;25.00;51.50;;;;;;5025281;28;20234;-42
2021/09/15 05:48:05;;;;;;;2.30;2.10;;;25.00;51.50;;;;;;5031353;28;20702;-47
2021/09/15 05:50:32;;;;;;;2.42;2.22;;;25.00;51.50;;;;;;5030451;28;20277;-48
2021/09/15 05:52:58;;;;;;;2.88;2.20;;;25.00;51.50;;;;;;5031112;28;20290;-47
2021/09/15 05:55:25;;;;;;;2.55;2.22;;;25.00;51.50;;;;;;5030263;28;20638;-50
2021/09/15 05:57:51;;;;;;;2.50;2.30;;;25.00;51.50;;;;;;5030895;28;20292;-41
2021/09/15 06:00:18;;;;;;;2.63;2.42;;;25.00;51.50;;;;;;5030757;28;20253;-41
2021/09/15 06:02:44;;;;;;;2.53;2.33;;;25.00;51.50;;;;;;5029720;28;20203;-43
2021/09/15 06:05:11;;;;;;;2.53;2.33;;;25.00;51.50;;;;;;5031362;28;20238;-42
2021/09/15 06:07:37;;;;;;;2.17;2.08;;;25.00;51.50;;;;;;5029948;28;20206;-42
2021/09/15 06:10:04;;;;;;;2.35;2.15;;;25.00;51.50;;;;;;5031268;28;20230;-42
2021/09/15 06:12:30;;;;;;;2.83;2.00;;;25.00;51.50;;;;;;5030773;28;20234;-42
2021/09/15 06:14:57;;;;;;;2.40;2.20;;;25.00;51.50;;;;;;5030759;28;20682;-42
2021/09/15 06:17:23;;;;;;;2.58;2.35;;;25.00;51.50;;;;;;5029624;28;20810;-42
2021/09/15 06:19:50;;;;;;;2.80;2.53;;;25.00;51.50;;;;;;5019611;28;20230;-42
2021/09/15 06:22:16;;;;;;;2.30;2.10;;;25.00;51.60;;;;;;5030345;28;20234;-42
2021/09/15 06:24:43;;;;;;;2.40;2.20;;;25.00;51.50;;;;;;5030643;28;20218;-41
2021/09/15 06:27:09;;;;;;;2.50;2.30;;;25.00;51.50;;;;;;5029700;28;20608;-42
2021/09/15 06:29:36;;;;;;;2.40;2.20;;;25.00;51.50;;;;;;5030638;28;20315;-42
2021/09/15 06:32:02;;;;;;;2.50;2.30;;;25.00;51.50;;;;;;5029897;28;20257;-42
2021/09/15 06:34:29;;;;;;;2.30;2.10;;;25.00;51.50;;;;;;5031205;28;20522;-43
2021/09/15 06:36:56;;;;;;;2.67;2.13;;;25.00;51.50;;;;;;5030012;28;20242;-44
2021/09/15 06:39:22;;;;;;;2.40;2.20;;;25.00;51.50;;;;;;5031225;28;20319;-42
2021/09/15 06:41:49;;;;;;;2.53;2.33;;;25.00;51.60;;;;;;5029215;28;20226;-42
2021/09/15 06:44:15;;;;;;;3.70;2.30;;;25.00;51.60;;;;;;5030556;28;20230;-42
2021/09/15 06:46:42;;;;;;;2.55;2.35;;;25.00;51.70;;;;;;5028643;28;20234;-45
2021/09/15 06:49:08;;;;;;;2.88;2.22;;;25.00;51.70;;;;;;5028877;28;20234;-42
2021/09/15 06:51:35;;;;;;;2.10;2.00;;;25.00;51.60;;;;;;5029206;28;20282;-42
2021/09/15 06:54:01;;;;;;;2.33;2.13;;;25.00;51.60;;;;;;5029932;28;20288;-43
2021/09/15 06:56:28;;;;;;;2.45;2.25;;;25.00;51.60;;;;;;5029116;28;20238;-42
2021/09/15 06:58:54;;;;;;;2.50;2.30;;;25.00;51.60;;;;;;5030152;28;20706;-41
2021/09/15 07:01:24;;;;;;;2.65;2.45;;;25.00;51.60;;;;;;5030368;28;20268;-42
2021/09/15 07:03:50;;;;;;;2.47;2.28;;;25.00;51.60;;;;;;5030621;28;20198;-41
2021/09/15 07:06:17;;;;;;;2.83;2.33;;;25.00;51.60;;;;;;5029370;28;20238;-41
2021/09/15 07:08:43;;;;;;;2.08;1.88;;;25.00;51.50;;;;;;5029696;28;20249;-42
2021/09/15 07:11:10;;;;;;;2.47;2.00;;;25.00;51.50;;;;;;5026030;28;20250;-42
2021/09/15 07:13:36;;;;;;;2.28;2.08;;;25.00;51.60;;;;;;5029888;28;20675;-42
2021/09/15 07:16:03;;;;;;;2.28;2.05;;;25.00;51.90;;;;;;5027238;28;20252;-42
2021/09/15 07:18:29;;;;;;;2.72;2.53;;;25.00;51.70;;;;;;5024377;28;20281;-42
2021/09/15 07:20:56;;;;;;;2.40;2.20;;;25.00;51.80;;;;;;5024090;28;20567;-42
2021/09/15 07:23:22;;;;;;;2.67;2.08;;;25.10;52.00;;;;;;5022151;28;20294;-43
2021/09/15 07:25:49;;;;;;;2.78;2.33;;;25.10;51.90;;;;;;5023274;28;20234;-42
2021/09/15 07:28:15;;;;;;;3.42;2.50;;;25.10;51.90;;;;;;5024438;28;20253;-43
2021/09/15 07:30:42;;;;;;;4.80;2.85;;;25.10;52.00;;;;;;5021974;28;20280;-43
2021/09/15 07:33:08;;;;;;;5.55;2.47;;;25.10;51.80;;;;;;5023938;28;20286;-46
2021/09/15 07:35:35;;;;;;;3.55;2.50;;;25.10;52.30;;;;;;5023069;28;20256;-45
2021/09/15 07:38:01;;;;;;;3.90;2.33;;;25.10;52.10;;;;;;5025222;28;20727;-42
2021/09/15 07:40:28;;;;;;;4.25;2.40;;;25.10;52.30;;;;;;5027634;28;20307;-43
2021/09/15 07:42:54;;;;;;;4.88;2.70;;;25.10;52.40;;;;;;5027463;28;20293;-42
2021/09/15 07:45:21;;;;;;;3.60;2.50;;;25.10;52.10;;;;;;5024938;28;20684;-50
2021/09/15 07:47:47;;;;;;;4.20;2.70;;;25.10;52.70;;;;;;5027310;28;20234;-50
2021/09/15 07:50:14;;;;;;;2.83;2.33;;;25.10;52.00;;;;;;5031836;28;20257;-46
2021/09/15 07:52:40;;;;;;;9.48;3.00;;;25.20;52.00;;;;;;5022151;28;20226;-42
2021/09/15 07:55:07;;;;;;;3.90;2.58;;;25.10;52.00;;;;;;5033299;28;20238;-49
2021/09/15 07:57:34;;;;;;;3.35;2.97;;;25.20;52.20;;;;;;5032701;28;20226;-50
2021/09/15 08:00:00;;;;;;;4.95;2.60;;;25.20;52.00;;;;;;5032286;28;20215;-46
2021/09/15 08:02:27;;;;;;;4.47;2.30;;;25.10;51.90;;;;;;5023577;28;20286;-48
2021/09/15 08:04:53;;;;;;;2.67;2.42;;;25.20;51.90;;;;;;5032916;28;20289;-43
2021/09/15 08:07:19;;;;;;;2.83;2.63;;;25.20;51.90;;;;;;5033672;28;20236;-46
2021/09/15 08:09:46;;;;;;;3.92;2.85;;;25.10;51.80;;;;;;5034173;28;20300;-49
2021/09/15 08:12:12;;;;;;;2.42;2.22;;;25.10;51.90;;;;;;5031780;28;20245;-50
2021/09/15 08:14:39;;;;;;;3.22;2.47;;;25.20;51.90;;;;;;5028976;28;20234;-44
2021/09/15 08:17:06;;;;;;;3.90;2.58;;;25.20;52.30;;;;;;5027777;28;20203;-42
2021/09/15 08:19:33;;;;;;;3.13;2.50;;;25.20;52.20;;;;;;5026381;28;20292;-47
2021/09/15 08:21:59;;;;;;;3.67;3.38;;;25.20;52.40;;;;;;5027773;28;20234;-45
2021/09/15 08:24:26;;;;;;;4.15;3.75;;;25.20;51.80;;;;;;5026886;28;20589;-42
2021/09/15 08:26:52;;;;;;;4.63;4.20;;;25.20;51.20;;;;;;5027647;28;20237;-42
2021/09/15 08:29:19;;;;;;;4.70;4.20;;;25.20;50.90;;;;;;5026973;28;20724;-42
2021/09/15 08:31:45;;;;;;;6.47;4.10;;;25.20;50.60;;;;;;5026968;28;20261;-42
2021/09/15 08:34:12;;;;;;;5.50;3.90;;;25.10;50.20;;;;;;5026400;28;20234;-43
2021/09/15 08:36:39;;;;;;;3.50;3.20;;;25.10;50.40;;;;;;5026758;28;20637;-44
2021/09/15 08:39:05;;;;;;;4.95;3.60;;;25.10;51.30;;;;;;5027408;28;20357;-42
2021/09/15 08:41:32;;;;;;;5.05;4.07;;;25.10;50.70;;;;;;5026647;28;20305;-46
2021/09/15 08:43:58;;;;;;;5.53;4.80;;;25.10;50.10;;;;;;5025058;28;20195;-44
2021/09/15 08:46:25;;;;;;;4.72;4.25;;;25.10;49.90;;;;;;5025697;28;20245;-42
2021/09/15 08:48:52;;;;;;;6.85;4.60;;;25.10;50.20;;;;;;5026307;28;20726;-47
2021/09/15 08:51:22;;;;;;;5.30;4.82;;;25.10;49.70;;;;;;5026482;28;20238;-43
2021/09/15 08:53:49;;;;;;;4.78;4.25;;;25.10;49.20;;;;;;5025176;28;20199;-43
2021/09/15 08:56:15;;;;;;;6.07;5.47;;;25.10;49.20;;;;;;5024898;28;20294;-46
2021/09/15 08:58:42;;;;;;;6.47;5.22;;;25.10;49.30;;;;;;5023940;28;20226;-44
2021/09/15 09:01:08;;;;;;;6.57;5.07;;;25.10;49.20;;;;;;5026307;28;20250;-44
2021/09/15 09:03:35;;;;;;;5.05;4.55;;;25.10;49.20;;;;;;5026613;28;20238;-41
2021/09/15 09:06:01;;;;;;;6.10;5.00;;;25.10;49.20;;;;;;5025329;28;20234;-44
2021/09/15 09:08:28;;;;;;;5.70;5.20;;;25.10;49.20;;;;;;5025426;28;20261;-44
2021/09/15 09:10:54;;;;;;;4.72;4.28;;;25.00;48.90;;;;;;5024229;28;20629;-49
2021/09/15 09:13:21;;;;;;;6.10;5.50;;;25.00;48.90;;;;;;5018436;28;20288;-44
2021/09/15 09:15:47;;;;;;;5.15;4.50;;;25.00;48.50;;;;;;5031924;28;20277;-45
2021/09/15 09:18:14;;;;;;;5.18;4.70;;;25.00;48.60;;;;;;5031053;28;20222;-45
2021/09/15 09:20:40;;;;;;;5.55;4.97;;;25.00;48.60;;;;;;5031861;28;20300;-44
2021/09/15 09:23:07;;;;;;;5.07;4.68;;;25.00;48.50;;;;;;5026985;28;20227;-43
2021/09/15 09:25:33;;;;;;;5.38;4.40;;;25.10;49.00;;;;;;5026906;28;20552;-45
2021/09/15 09:28:00;;;;;;;5.72;4.70;;;25.10;49.50;;;;;;5026465;28;20234;-46
2021/09/15 09:30:26;;;;;;;7.97;5.72;;;25.20;49.60;;;;;;5023022;28;20776;-52
2021/09/15 09:32:53;;;;;;;6.20;4.50;;;25.20;49.80;;;;;;5031289;28;20226;-44
2021/09/15 09:35:19;;;;;;;5.30;4.80;;;25.20;49.80;;;;;;5031602;28;20246;-45
2021/09/15 09:37:46;;;;;;;5.22;4.72;;;25.30;49.90;;;;;;5030486;28;20686;-44
2021/09/15 09:40:12;;;;;;;7.15;4.57;;;25.30;50.00;;;;;;5030163;28;20258;-45
2021/09/15 09:42:40;;;;;;;5.10;4.47;;;25.30;49.90;;;;;;5029033;28;20245;-44
2021/09/15 09:45:07;;;;;;;5.88;5.07;;;25.30;50.00;;;;;;5029969;28;20290;-44
2021/09/15 09:47:33;;;;;;;4.90;4.32;;;25.20;49.80;;;;;;5030292;28;20241;-43
2021/09/15 09:49:59;;;;;;;5.10;4.63;;;25.20;50.10;;;;;;5031470;28;20352;-43
2021/09/15 09:52:26;;;;;;;4.60;4.15;;;25.20;50.20;;;;;;5032037;28;20242;-45
2021/09/15 09:54:52;;;;;;;4.78;4.38;;;25.20;50.20;;;;;;5031354;28;20242;-43
2021/09/15 09:57:19;;;;;;;5.22;4.25;;;25.20;50.30;;;;;;5031773;28;20233;-43
2021/09/15 09:59:45;;;;;;;4.78;4.38;;;25.20;50.30;;;;;;5030848;28;20729;-43
2021/09/15 10:02:12;;;;;;;4.63;4.22;;;25.20;50.30;;;;;;5014926;28;20234;-43
2021/09/15 10:04:38;;;;;;;5.10;4.43;;;25.20;50.30;;;;;;5018320;28;20298;-45
2021/09/15 10:07:05;;;;;;;4.63;4.20;;;25.20;50.30;;;;;;5031227;28;20671;-44
2021/09/15 10:09:31;;;;;;;4.35;3.95;;;25.20;50.20;;;;;;5031581;28;20254;-44
2021/09/15 10:11:58;;;;;;;4.53;4.13;;;25.20;50.20;;;;;;5031839;28;20238;-45
2021/09/15 10:14:24;;;;;;;4.50;4.10;;;25.20;50.20;;;;;;5030633;28;20636;-49
2021/09/15 10:16:51;;;;;;;7.75;4.50;;;25.20;50.20;;;;;;5025729;28;20226;-42
2021/09/15 10:19:17;;;;;;;4.70;4.28;;;25.20;50.10;;;;;;5030079;28;20865;-46
2021/09/15 10:21:44;;;;;;;5.78;4.57;;;25.20;50.10;;;;;;5028147;28;20230;-42
2021/09/15 10:24:12;;;;;;;9.00;4.72;;;25.20;50.20;;;;;;5021147;28;20203;-42
2021/09/15 10:26:39;;;;;;;5.07;3.75;;;25.20;50.50;;;;;;5021738;28;20210;-42
2021/09/15 10:29:05;;;;;;;4.15;3.80;;;25.20;50.40;;;;;;5023202;28;20250;-44
2021/09/15 10:31:32;;;;;;;4.80;4.28;;;25.20;50.40;;;;;;5025774;28;20246;-45
2021/09/15 10:33:58;;;;;;;4.43;4.03;;;25.20;50.30;;;;;;5024126;28;20609;-45
2021/09/15 10:36:25;;;;;;;4.15;3.75;;;25.30;50.50;;;;;;5026009;28;20246;-44
2021/09/15 10:38:51;;;;;;;4.95;4.25;;;25.30;50.50;;;;;;5023970;28;20317;-48
2021/09/15 10:41:18;;;;;;;4.57;4.10;;;25.30;50.50;;;;;;5023940;28;20290;-46
2021/09/15 10:43:44;;;;;;;4.78;4.00;;;25.30;50.50;;;;;;5024206;28;20230;-44
2021/09/15 10:46:11;;;;;;;4.68;4.20;;;25.30;50.50;;;;;;5024911;28;20238;-48
2021/09/15 10:48:37;;;;;;;5.00;4.28;;;25.30;50.80;;;;;;5024820;28;20752;-48
2021/09/15 10:51:04;;;;;;;4.55;4.15;;;25.40;50.90;;;;;;5025177;28;20222;-45
2021/09/15 10:53:30;;;;;;;5.95;4.70;;;25.40;50.80;;;;;;5023128;28;20292;-43
2021/09/15 10:55:57;;;;;;;5.38;4.25;;;25.30;50.70;;;;;;5024430;28;20759;-43
2021/09/15 10:58:24;;;;;;;4.65;4.25;;;25.30;50.60;;;;;;5025371;28;20239;-42
2021/09/15 11:00:50;;;;;;;4.85;4.35;;;25.30;50.60;;;;;;5024769;28;20257;-45
2021/09/15 11:03:17;;;;;;;4.55;4.15;;;25.30;50.60;;;;;;5025203;28;20206;-45
2021/09/15 11:05:43;;;;;;;4.50;4.10;;;25.30;50.60;;;;;;5023677;28;20201;-42
2021/09/15 11:08:12;;;;;;;4.90;4.47;;;25.30;50.50;;;;;;5023458;28;20647;-44
2021/09/15 11:10:38;;;;;;;4.35;4.05;;;25.30;50.70;;;;;;5021605;28;20230;-43
2021/09/15 11:13:04;;;;;;;4.57;4.13;;;25.30;50.80;;;;;;5027720;28;20290;-48
2021/09/15 11:15:31;;;;;;;4.55;4.15;;;25.30;50.70;;;;;;5026372;28;20325;-43
2021/09/15 11:17:57;;;;;;;5.72;5.13;;;25.30;50.70;;;;;;5026171;28;20302;-47
2021/09/15 11:20:24;;;;;;;5.13;4.30;;;25.30;50.60;;;;;;5028045;28;20265;-46
2021/09/15 11:22:50;;;;;;;4.40;4.00;;;25.30;50.50;;;;;;5033506;28;20628;-48
2021/09/15 11:25:17;;;;;;;4.53;4.05;;;25.30;50.50;;;;;;5029631;28;20288;-46
2021/09/15 11:27:43;;;;;;;5.35;4.30;;;25.30;50.50;;;;;;5033329;28;20565;-42
2021/09/15 11:30:10;;;;;;;4.40;3.90;;;25.30;50.50;;;;;;5032946;28;20311;-47
2021/09/15 11:32:36;;;;;;;5.22;4.35;;;25.30;50.50;;;;;;5034106;28;20651;-45
2021/09/15 11:35:03;;;;;;;4.45;4.05;;;25.30;50.50;;;;;;5032500;28;20237;-43
2021/09/15 11:37:29;;;;;;;4.60;4.10;;;25.30;50.60;;;;;;5033769;28;20238;-44
2021/09/15 11:39:56;;;;;;;5.57;3.92;;;25.30;50.50;;;;;;5029887;28;20793;-46
2021/09/15 11:42:22;;;;;;;4.75;4.28;;;25.30;50.50;;;;;;5025153;28;20285;-45
2021/09/15 11:44:49;;;;;;;5.47;4.40;;;25.30;50.60;;;;;;5020515;28;20296;-45
2021/09/15 11:47:15;;;;;;;5.15;4.50;;;25.30;50.60;;;;;;5020393;28;20231;-47
2021/09/15 11:49:42;;;;;;;13.65;9.23;;;25.30;50.60;;;;;;5031985;28;20784;-43
2021/09/15 11:52:08;;;;;;;27.33;13.90;;;25.30;50.70;;;;;;5032918;28;20237;-43
2021/09/15 11:54:35;;;;;;;31.75;17.17;;;25.30;50.70;;;;;;5033318;28;20238;-43
2021/09/15 11:57:06;;;;;;;33.65;18.80;;;25.30;50.70;;;;;;5024963;28;20294;-45
2021/09/15 11:59:33;;;;;;;44.47;19.88;;;25.30;50.90;;;;;;5020975;28;20325;-48
2021/09/15 12:01:59;;;;;;;38.85;20.75;;;25.30;51.00;;;;;;5018147;28;20563;-46
2021/09/15 12:04:26;;;;;;;38.00;19.98;;;25.40;51.10;;;;;;5020779;28;20261;-45
2021/09/15 12:06:52;;;;;;;40.50;18.60;;;25.40;51.10;;;;;;5020163;28;20743;-44
2021/09/15 12:09:18;;;;;;;31.73;17.77;;;25.40;51.40;;;;;;5019427;28;20306;-45
2021/09/15 12:11:48;;;;;;;29.60;15.77;;;25.40;51.40;;;;;;5016897;28;20215;-45
2021/09/15 12:14:14;;;;;;;33.05;16.83;;;25.30;51.30;;;;;;5020002;28;20230;-45
2021/09/15 12:16:41;;;;;;;20.83;12.07;;;25.30;51.40;;;;;;5020496;28;20242;-47
2021/09/15 12:19:07;;;;;;;16.85;11.65;;;25.30;51.20;;;;;;5019975;28;20242;-44
2021/09/15 12:21:34;;;;;;;12.70;10.05;;;25.30;51.10;;;;;;5020489;28;20313;-44
2021/09/15 12:24:01;;;;;;;16.35;10.60;;;25.30;51.00;;;;;;5018001;28;20380;-42
2021/09/15 12:26:28;;;;;;;14.02;10.60;;;25.30;51.10;;;;;;5020391;28;20205;-43
2021/09/15 12:28:54;;;;;;;15.30;9.15;;;25.30;51.00;;;;;;5020599;28;20328;-44
2021/09/15 12:31:21;;;;;;;11.85;8.55;;;25.30;50.90;;;;;;5027973;28;20207;-46
2021/09/15 12:33:47;;;;;;;11.93;8.75;;;25.20;50.50;;;;;;5031533;28;20940;-44
2021/09/15 12:36:14;;;;;;;12.00;7.43;;;25.20;50.50;;;;;;5019670;28;20230;-43
2021/09/15 12:38:40;;;;;;;9.70;6.80;;;25.20;50.20;;;;;;5019312;28;20283;-48
2021/09/15 12:41:06;;;;;;;7.57;6.35;;;25.10;50.00;;;;;;5019543;28;20734;-43
2021/09/15 12:43:33;;;;;;;8.55;6.07;;;25.10;50.00;;;;;;5019981;28;20203;-44
2021/09/15 12:46:00;;;;;;;8.85;5.90;;;25.10;49.90;;;;;;5019238;28;20642;-43